sensor_id;sensor_type;location;lat;lon;timestamp;temperature;humidity
21216;DHT22;10765;50.954;5.322;2022-12-18T00:00:44;-5.90;1.00
21216;DHT22;10765;50.954;5.322;2022-12-18T00:03:12;-5.90;1.00
21216;DHT22;10765;50.954;5.322;2022-12-18T00:05:46;-5.90;1.00
21216;DHT22;10765;50.954;5.322;2022-12-18T00:08:13;-6.00;1.00
21216;DHT22;10765;50.954;5.322;2022-12-18T00:10:40;-6.10;83.70
21216;DHT22;10765;50.954;5.322;2022-12-18T00:13:07;-6.20;57.60
21216;DHT22;10765;50.954;5.322;2022-12-18T00:15:35;-6.30;17.20
21216;DHT22;10765;50.954;5.322;2022-12-18T00:18:02;-6.20;1.00
21216;DHT22;10765;50.954;5.322;2022-12-18T00:20:30;-6.20;1.00
21216;DHT22;10765;50.954;5.322;2022-12-18T00:22:57;-6.20;1.00
21216;DHT22;10765;50.954;5.322;2022-12-18T00:25:24;-6.20;1.00
21216;DHT22;10765;50.954;5.322;2022-12-18T00:27:50;-6.30;1.00
21216;DHT22;10765;50.954;5.322;2022-12-18T00:30:17;-6.30;1.00
21216;DHT22;10765;50.954;5.322;2022-12-18T00:32:46;-6.30;1.00
21216;DHT22;10765;50.954;5.322;2022-12-18T00:35:13;-6.30;1.00
21216;DHT22;10765;50.954;5.322;2022-12-18T00:37:39;-6.30;1.00
21216;DHT22;10765;50.954;5.322;2022-12-18T00:40:08;-6.30;1.00
21216;DHT22;10765;50.954;5.322;2022-12-18T00:42:36;-6.30;1.00
21216;DHT22;10765;50.954;5.322;2022-12-18T00:45:21;-6.20;1.00
21216;DHT22;10765;50.954;5.322;2022-12-18T00:47:49;-6.20;1.00
21216;DHT22;10765;50.954;5.322;2022-12-18T00:50:16;-6.10;1.00
21216;DHT22;10765;50.954;5.322;2022-12-18T00:52:43;-6.20;1.00
21216;DHT22;10765;50.954;5.322;2022-12-18T00:55:11;-6.30;1.00
21216;DHT22;10765;50.954;5.322;2022-12-18T00:57:38;-6.20;1.00
21216;DHT22;10765;50.954;5.322;2022-12-18T01:00:07;-6.20;1.00
21216;DHT22;10765;50.954;5.322;2022-12-18T01:02:34;-6.30;1.00
21216;DHT22;10765;50.954;5.322;2022-12-18T01:05:03;-6.30;1.00
21216;DHT22;10765;50.954;5.322;2022-12-18T01:07:30;-6.30;1.00
21216;DHT22;10765;50.954;5.322;2022-12-18T01:09:57;-6.20;1.00
21216;DHT22;10765;50.954;5.322;2022-12-18T01:12:24;-6.20;1.00
21216;DHT22;10765;50.954;5.322;2022-12-18T01:14:51;-6.10;1.00
21216;DHT22;10765;50.954;5.322;2022-12-18T01:17:18;-6.10;1.00
21216;DHT22;10765;50.954;5.322;2022-12-18T01:19:45;-6.00;1.00
21216;DHT22;10765;50.954;5.322;2022-12-18T01:22:13;-6.00;1.00
21216;DHT22;10765;50.954;5.322;2022-12-18T01:24:40;-6.00;1.00
21216;DHT22;10765;50.954;5.322;2022-12-18T01:27:08;-6.10;1.00
21216;DHT22;10765;50.954;5.322;2022-12-18T01:29:35;-6.10;1.00
21216;DHT22;10765;50.954;5.322;2022-12-18T01:32:02;-6.20;1.00
21216;DHT22;10765;50.954;5.322;2022-12-18T01:34:29;-6.20;1.00
21216;DHT22;10765;50.954;5.322;2022-12-18T01:36:56;-6.20;1.00
21216;DHT22;10765;50.954;5.322;2022-12-18T01:39:25;-6.10;1.00
21216;DHT22;10765;50.954;5.322;2022-12-18T01:41:51;-6.10;1.00
21216;DHT22;10765;50.954;5.322;2022-12-18T01:44:54;-6.20;1.00
21216;DHT22;10765;50.954;5.322;2022-12-18T01:47:23;-6.30;1.00
21216;DHT22;10765;50.954;5.322;2022-12-18T01:49:51;-6.40;1.00
21216;DHT22;10765;50.954;5.322;2022-12-18T01:52:19;-6.50;1.00
21216;DHT22;10765;50.954;5.322;2022-12-18T01:54:49;-6.70;1.00
21216;DHT22;10765;50.954;5.322;2022-12-18T01:57:17;-6.80;42.60
21216;DHT22;10765;50.954;5.322;2022-12-18T01:59:45;-6.80;99.90
21216;DHT22;10765;50.954;5.322;2022-12-18T02:02:14;-6.80;99.90
21216;DHT22;10765;50.954;5.322;2022-12-18T02:04:42;-6.80;99.90
21216;DHT22;10765;50.954;5.322;2022-12-18T02:07:15;-6.70;99.90
21216;DHT22;10765;50.954;5.322;2022-12-18T02:09:48;-6.60;4.20
21216;DHT22;10765;50.954;5.322;2022-12-18T02:12:18;-6.60;1.00
21216;DHT22;10765;50.954;5.322;2022-12-18T02:15:00;-6.60;1.00
21216;DHT22;10765;50.954;5.322;2022-12-18T02:17:33;-6.60;1.00
21216;DHT22;10765;50.954;5.322;2022-12-18T02:20:12;-6.70;1.00
21216;DHT22;10765;50.954;5.322;2022-12-18T02:22:47;-6.90;1.00
21216;DHT22;10765;50.954;5.322;2022-12-18T02:28:13;-7.20;1.00
21216;DHT22;10765;50.954;5.322;2022-12-18T02:30:42;-7.40;1.00
21216;DHT22;10765;50.954;5.322;2022-12-18T02:33:11;-7.30;1.00
21216;DHT22;10765;50.954;5.322;2022-12-18T02:35:40;-7.10;1.00
21216;DHT22;10765;50.954;5.322;2022-12-18T02:38:08;-6.90;1.00
21216;DHT22;10765;50.954;5.322;2022-12-18T02:40:36;-7.10;1.00
21216;DHT22;10765;50.954;5.322;2022-12-18T02:43:07;-7.10;1.00
21216;DHT22;10765;50.954;5.322;2022-12-18T02:45:36;-7.10;1.00
21216;DHT22;10765;50.954;5.322;2022-12-18T02:48:04;-7.00;1.00
21216;DHT22;10765;50.954;5.322;2022-12-18T02:50:35;-7.00;1.00
21216;DHT22;10765;50.954;5.322;2022-12-18T02:53:12;-7.00;99.90
21216;DHT22;10765;50.954;5.322;2022-12-18T02:55:52;-7.00;99.90
21216;DHT22;10765;50.954;5.322;2022-12-18T02:58:28;-7.00;99.90
21216;DHT22;10765;50.954;5.322;2022-12-18T03:01:01;-7.00;99.90
21216;DHT22;10765;50.954;5.322;2022-12-18T03:03:34;-7.10;99.90
21216;DHT22;10765;50.954;5.322;2022-12-18T03:06:06;-7.30;99.90
21216;DHT22;10765;50.954;5.322;2022-12-18T03:08:38;-7.30;99.90
21216;DHT22;10765;50.954;5.322;2022-12-18T03:11:08;-7.20;99.90
21216;DHT22;10765;50.954;5.322;2022-12-18T03:13:39;-7.20;99.90
21216;DHT22;10765;50.954;5.322;2022-12-18T03:16:12;-7.20;99.90
21216;DHT22;10765;50.954;5.322;2022-12-18T03:18:47;-7.20;99.90
21216;DHT22;10765;50.954;5.322;2022-12-18T03:21:21;-7.10;99.90
21216;DHT22;10765;50.954;5.322;2022-12-18T03:23:50;-7.10;99.90
21216;DHT22;10765;50.954;5.322;2022-12-18T03:26:20;-7.10;99.90
21216;DHT22;10765;50.954;5.322;2022-12-18T03:28:52;-7.10;99.90
21216;DHT22;10765;50.954;5.322;2022-12-18T03:31:23;-7.20;99.90
21216;DHT22;10765;50.954;5.322;2022-12-18T03:33:53;-7.20;99.90
21216;DHT22;10765;50.954;5.322;2022-12-18T03:36:20;-7.30;99.90
21216;DHT22;10765;50.954;5.322;2022-12-18T03:38:48;-7.30;99.90
21216;DHT22;10765;50.954;5.322;2022-12-18T03:41:18;-7.40;99.90
21216;DHT22;10765;50.954;5.322;2022-12-18T03:43:51;-7.40;99.90
21216;DHT22;10765;50.954;5.322;2022-12-18T03:46:27;-7.30;99.90
21216;DHT22;10765;50.954;5.322;2022-12-18T03:48:59;-7.20;99.90
21216;DHT22;10765;50.954;5.322;2022-12-18T03:51:35;-7.30;99.90
21216;DHT22;10765;50.954;5.322;2022-12-18T03:54:05;-7.50;99.90
21216;DHT22;10765;50.954;5.322;2022-12-18T03:56:36;-7.50;99.90
21216;DHT22;10765;50.954;5.322;2022-12-18T03:59:04;-7.40;99.90
21216;DHT22;10765;50.954;5.322;2022-12-18T04:01:48;-7.30;99.90
21216;DHT22;10765;50.954;5.322;2022-12-18T04:04:17;-7.40;99.90
21216;DHT22;10765;50.954;5.322;2022-12-18T04:06:46;-7.40;99.90
21216;DHT22;10765;50.954;5.322;2022-12-18T04:09:14;-7.50;99.90
21216;DHT22;10765;50.954;5.322;2022-12-18T04:11:41;-7.50;99.90
21216;DHT22;10765;50.954;5.322;2022-12-18T04:14:10;-7.50;99.90
21216;DHT22;10765;50.954;5.322;2022-12-18T04:16:38;-7.50;99.90
21216;DHT22;10765;50.954;5.322;2022-12-18T04:19:05;-7.50;99.90
21216;DHT22;10765;50.954;5.322;2022-12-18T04:21:32;-7.50;99.90
21216;DHT22;10765;50.954;5.322;2022-12-18T04:23:59;-7.50;99.90
21216;DHT22;10765;50.954;5.322;2022-12-18T04:26:25;-7.50;99.90
21216;DHT22;10765;50.954;5.322;2022-12-18T04:28:52;-7.50;99.90
21216;DHT22;10765;50.954;5.322;2022-12-18T04:31:19;-7.50;99.90
21216;DHT22;10765;50.954;5.322;2022-12-18T04:33:47;-7.60;99.90
21216;DHT22;10765;50.954;5.322;2022-12-18T04:36:14;-7.80;99.90
21216;DHT22;10765;50.954;5.322;2022-12-18T04:38:41;-7.90;99.90
21216;DHT22;10765;50.954;5.322;2022-12-18T04:41:08;-7.90;99.90
21216;DHT22;10765;50.954;5.322;2022-12-18T04:43:35;-7.90;99.90
21216;DHT22;10765;50.954;5.322;2022-12-18T04:46:03;-7.90;99.90
21216;DHT22;10765;50.954;5.322;2022-12-18T04:48:30;-7.90;99.90
21216;DHT22;10765;50.954;5.322;2022-12-18T04:50:58;-8.00;99.90
21216;DHT22;10765;50.954;5.322;2022-12-18T04:53:25;-8.00;99.90
21216;DHT22;10765;50.954;5.322;2022-12-18T04:56:03;-7.90;99.90
21216;DHT22;10765;50.954;5.322;2022-12-18T04:58:30;-7.90;99.90
21216;DHT22;10765;50.954;5.322;2022-12-18T05:00:57;-7.90;99.90
21216;DHT22;10765;50.954;5.322;2022-12-18T05:03:24;-7.80;99.90
21216;DHT22;10765;50.954;5.322;2022-12-18T05:05:51;-7.80;99.90
21216;DHT22;10765;50.954;5.322;2022-12-18T05:08:19;-7.80;99.90
21216;DHT22;10765;50.954;5.322;2022-12-18T05:10:46;-7.70;99.90
21216;DHT22;10765;50.954;5.322;2022-12-18T05:13:13;-7.80;99.90
21216;DHT22;10765;50.954;5.322;2022-12-18T05:15:40;-7.90;99.90
21216;DHT22;10765;50.954;5.322;2022-12-18T05:18:08;-8.10;99.90
21216;DHT22;10765;50.954;5.322;2022-12-18T05:20:35;-8.10;99.90
21216;DHT22;10765;50.954;5.322;2022-12-18T05:23:02;-8.10;99.90
21216;DHT22;10765;50.954;5.322;2022-12-18T05:25:30;-8.10;99.90
21216;DHT22;10765;50.954;5.322;2022-12-18T05:27:57;-8.10;99.90
21216;DHT22;10765;50.954;5.322;2022-12-18T05:30:24;-8.20;99.90
21216;DHT22;10765;50.954;5.322;2022-12-18T05:32:51;-8.30;99.90
21216;DHT22;10765;50.954;5.322;2022-12-18T05:35:17;-8.20;99.90
21216;DHT22;10765;50.954;5.322;2022-12-18T05:37:44;-8.20;99.90
21216;DHT22;10765;50.954;5.322;2022-12-18T05:40:12;-8.10;99.90
21216;DHT22;10765;50.954;5.322;2022-12-18T05:42:40;-7.90;99.90
21216;DHT22;10765;50.954;5.322;2022-12-18T05:45:08;-7.90;99.90
21216;DHT22;10765;50.954;5.322;2022-12-18T05:47:34;-7.90;99.90
21216;DHT22;10765;50.954;5.322;2022-12-18T05:50:01;-7.90;99.90
21216;DHT22;10765;50.954;5.322;2022-12-18T05:52:28;-7.80;99.90
21216;DHT22;10765;50.954;5.322;2022-12-18T05:54:56;-7.90;99.90
21216;DHT22;10765;50.954;5.322;2022-12-18T05:57:24;-7.90;99.90
21216;DHT22;10765;50.954;5.322;2022-12-18T05:59:53;-8.00;99.90
21216;DHT22;10765;50.954;5.322;2022-12-18T06:02:19;-8.00;99.90
21216;DHT22;10765;50.954;5.322;2022-12-18T06:04:46;-7.90;99.90
21216;DHT22;10765;50.954;5.322;2022-12-18T06:07:13;-8.00;99.90
21216;DHT22;10765;50.954;5.322;2022-12-18T06:09:40;-7.90;99.90
21216;DHT22;10765;50.954;5.322;2022-12-18T06:12:07;-7.90;99.90
21216;DHT22;10765;50.954;5.322;2022-12-18T06:14:34;-7.90;99.90
21216;DHT22;10765;50.954;5.322;2022-12-18T06:17:02;-7.90;99.90
21216;DHT22;10765;50.954;5.322;2022-12-18T06:19:29;-7.90;99.90
21216;DHT22;10765;50.954;5.322;2022-12-18T06:21:56;-8.00;99.90
21216;DHT22;10765;50.954;5.322;2022-12-18T06:24:24;-8.00;99.90
21216;DHT22;10765;50.954;5.322;2022-12-18T06:26:51;-8.00;99.90
21216;DHT22;10765;50.954;5.322;2022-12-18T06:29:18;-8.10;99.90
21216;DHT22;10765;50.954;5.322;2022-12-18T06:31:44;-8.10;1.00
21216;DHT22;10765;50.954;5.322;2022-12-18T06:34:13;-8.00;1.00
21216;DHT22;10765;50.954;5.322;2022-12-18T06:36:40;-8.10;99.90
21216;DHT22;10765;50.954;5.322;2022-12-18T06:39:06;-8.10;1.00
21216;DHT22;10765;50.954;5.322;2022-12-18T06:41:33;-8.00;1.00
21216;DHT22;10765;50.954;5.322;2022-12-18T06:44:00;-8.00;1.00
21216;DHT22;10765;50.954;5.322;2022-12-18T06:46:27;-8.00;1.00
21216;DHT22;10765;50.954;5.322;2022-12-18T06:48:54;-7.90;1.00
21216;DHT22;10765;50.954;5.322;2022-12-18T06:51:23;-7.90;1.00
21216;DHT22;10765;50.954;5.322;2022-12-18T06:53:50;-7.90;99.90
21216;DHT22;10765;50.954;5.322;2022-12-18T06:56:17;-7.80;99.90
21216;DHT22;10765;50.954;5.322;2022-12-18T06:58:44;-7.70;99.90
21216;DHT22;10765;50.954;5.322;2022-12-18T07:01:12;-7.70;99.90
21216;DHT22;10765;50.954;5.322;2022-12-18T07:03:40;-7.80;99.90
21216;DHT22;10765;50.954;5.322;2022-12-18T07:06:13;-7.90;99.90
21216;DHT22;10765;50.954;5.322;2022-12-18T07:08:41;-8.00;99.90
21216;DHT22;10765;50.954;5.322;2022-12-18T07:11:09;-7.90;99.90
21216;DHT22;10765;50.954;5.322;2022-12-18T07:13:35;-7.80;99.90
21216;DHT22;10765;50.954;5.322;2022-12-18T07:16:07;-7.70;99.90
21216;DHT22;10765;50.954;5.322;2022-12-18T07:18:34;-7.70;99.90
21216;DHT22;10765;50.954;5.322;2022-12-18T07:21:05;-7.60;99.90
21216;DHT22;10765;50.954;5.322;2022-12-18T07:23:32;-7.50;99.90
21216;DHT22;10765;50.954;5.322;2022-12-18T07:26:02;-7.50;99.90
21216;DHT22;10765;50.954;5.322;2022-12-18T07:28:30;-7.30;99.90
21216;DHT22;10765;50.954;5.322;2022-12-18T07:30:57;-7.20;99.90
21216;DHT22;10765;50.954;5.322;2022-12-18T07:33:25;-7.10;99.90
21216;DHT22;10765;50.954;5.322;2022-12-18T07:35:52;-7.00;99.90
21216;DHT22;10765;50.954;5.322;2022-12-18T07:38:19;-7.00;99.90
21216;DHT22;10765;50.954;5.322;2022-12-18T07:40:45;-6.90;99.90
21216;DHT22;10765;50.954;5.322;2022-12-18T07:43:14;-6.80;99.90
21216;DHT22;10765;50.954;5.322;2022-12-18T07:45:42;-6.70;99.90
21216;DHT22;10765;50.954;5.322;2022-12-18T07:48:09;-6.70;99.90
21216;DHT22;10765;50.954;5.322;2022-12-18T07:50:36;-6.60;99.90
21216;DHT22;10765;50.954;5.322;2022-12-18T07:53:02;-6.60;99.90
21216;DHT22;10765;50.954;5.322;2022-12-18T07:55:30;-6.50;99.90
21216;DHT22;10765;50.954;5.322;2022-12-18T07:58:00;-6.40;99.90
21216;DHT22;10765;50.954;5.322;2022-12-18T08:00:28;-6.20;99.90
21216;DHT22;10765;50.954;5.322;2022-12-18T08:02:55;-5.90;99.90
21216;DHT22;10765;50.954;5.322;2022-12-18T08:05:23;-5.70;99.90
21216;DHT22;10765;50.954;5.322;2022-12-18T08:07:49;-5.70;99.90
21216;DHT22;10765;50.954;5.322;2022-12-18T08:10:16;-5.80;99.90
21216;DHT22;10765;50.954;5.322;2022-12-18T08:12:43;-5.60;99.90
21216;DHT22;10765;50.954;5.322;2022-12-18T08:15:10;-5.40;99.90
21216;DHT22;10765;50.954;5.322;2022-12-18T08:17:39;-5.20;99.90
21216;DHT22;10765;50.954;5.322;2022-12-18T08:20:06;-4.90;99.90
21216;DHT22;10765;50.954;5.322;2022-12-18T08:22:34;-4.60;99.90
21216;DHT22;10765;50.954;5.322;2022-12-18T08:25:01;-3.90;99.90
21216;DHT22;10765;50.954;5.322;2022-12-18T08:27:28;-3.20;99.90
21216;DHT22;10765;50.954;5.322;2022-12-18T08:29:55;-2.70;99.90
21216;DHT22;10765;50.954;5.322;2022-12-18T08:32:22;-2.00;69.40
21216;DHT22;10765;50.954;5.322;2022-12-18T08:34:50;-1.10;27.00
21216;DHT22;10765;50.954;5.322;2022-12-18T08:37:17;0.10;1.00
21216;DHT22;10765;50.954;5.322;2022-12-18T08:39:44;0.70;1.00
21216;DHT22;10765;50.954;5.322;2022-12-18T08:42:11;0.70;1.00
21216;DHT22;10765;50.954;5.322;2022-12-18T08:44:55;1.00;1.00
21216;DHT22;10765;50.954;5.322;2022-12-18T08:47:24;1.20;1.00
21216;DHT22;10765;50.954;5.322;2022-12-18T08:49:53;1.50;1.00
21216;DHT22;10765;50.954;5.322;2022-12-18T08:52:20;1.90;1.00
21216;DHT22;10765;50.954;5.322;2022-12-18T08:54:47;1.60;1.00
21216;DHT22;10765;50.954;5.322;2022-12-18T08:57:14;1.80;1.00
21216;DHT22;10765;50.954;5.322;2022-12-18T08:59:41;2.70;1.00
21216;DHT22;10765;50.954;5.322;2022-12-18T09:02:09;3.00;1.00
21216;DHT22;10765;50.954;5.322;2022-12-18T09:04:36;3.10;1.00
21216;DHT22;10765;50.954;5.322;2022-12-18T09:07:06;2.80;1.00
21216;DHT22;10765;50.954;5.322;2022-12-18T09:09:34;1.90;1.00
21216;DHT22;10765;50.954;5.322;2022-12-18T09:12:03;1.60;1.00
21216;DHT22;10765;50.954;5.322;2022-12-18T09:14:30;0.80;1.00
21216;DHT22;10765;50.954;5.322;2022-12-18T09:16:56;0.20;1.00
21216;DHT22;10765;50.954;5.322;2022-12-18T09:19:23;-0.10;1.00
21216;DHT22;10765;50.954;5.322;2022-12-18T09:21:50;-0.20;1.00
21216;DHT22;10765;50.954;5.322;2022-12-18T09:24:18;0.00;1.00
21216;DHT22;10765;50.954;5.322;2022-12-18T09:26:45;0.50;1.00
21216;DHT22;10765;50.954;5.322;2022-12-18T09:29:12;0.60;1.00
21216;DHT22;10765;50.954;5.322;2022-12-18T09:31:40;0.40;1.00
21216;DHT22;10765;50.954;5.322;2022-12-18T09:34:07;0.60;1.00
21216;DHT22;10765;50.954;5.322;2022-12-18T09:36:34;0.60;1.00
21216;DHT22;10765;50.954;5.322;2022-12-18T09:39:01;0.70;1.00
21216;DHT22;10765;50.954;5.322;2022-12-18T09:41:40;0.90;1.00
21216;DHT22;10765;50.954;5.322;2022-12-18T09:44:25;0.80;1.00
21216;DHT22;10765;50.954;5.322;2022-12-18T09:47:05;0.50;1.00
21216;DHT22;10765;50.954;5.322;2022-12-18T09:49:37;0.60;1.00
21216;DHT22;10765;50.954;5.322;2022-12-18T09:52:11;0.80;1.00
21216;DHT22;10765;50.954;5.322;2022-12-18T09:54:40;1.00;1.00
21216;DHT22;10765;50.954;5.322;2022-12-18T09:57:14;1.20;1.00
21216;DHT22;10765;50.954;5.322;2022-12-18T09:59:42;1.40;1.00
21216;DHT22;10765;50.954;5.322;2022-12-18T10:02:18;1.30;1.00
21216;DHT22;10765;50.954;5.322;2022-12-18T10:04:54;1.40;1.00
21216;DHT22;10765;50.954;5.322;2022-12-18T10:07:27;1.20;1.00
21216;DHT22;10765;50.954;5.322;2022-12-18T10:10:01;1.00;1.00
21216;DHT22;10765;50.954;5.322;2022-12-18T10:12:34;1.00;1.00
21216;DHT22;10765;50.954;5.322;2022-12-18T10:15:10;1.00;1.00
21216;DHT22;10765;50.954;5.322;2022-12-18T10:17:44;1.10;1.00
21216;DHT22;10765;50.954;5.322;2022-12-18T10:20:17;0.90;1.00
21216;DHT22;10765;50.954;5.322;2022-12-18T10:22:53;0.80;1.00
21216;DHT22;10765;50.954;5.322;2022-12-18T10:25:25;0.90;1.00
21216;DHT22;10765;50.954;5.322;2022-12-18T10:27:56;1.20;1.00
21216;DHT22;10765;50.954;5.322;2022-12-18T10:30:25;1.40;1.00
21216;DHT22;10765;50.954;5.322;2022-12-18T10:32:52;1.40;1.00
21216;DHT22;10765;50.954;5.322;2022-12-18T10:35:22;1.50;1.00
21216;DHT22;10765;50.954;5.322;2022-12-18T10:38:07;1.50;1.00
21216;DHT22;10765;50.954;5.322;2022-12-18T10:40:52;1.20;1.00
21216;DHT22;10765;50.954;5.322;2022-12-18T10:43:25;1.30;1.00
21216;DHT22;10765;50.954;5.322;2022-12-18T10:46:14;1.20;1.00
21216;DHT22;10765;50.954;5.322;2022-12-18T10:48:53;0.90;1.00
21216;DHT22;10765;50.954;5.322;2022-12-18T10:51:23;0.90;1.00
21216;DHT22;10765;50.954;5.322;2022-12-18T10:53:56;0.80;1.00
21216;DHT22;10765;50.954;5.322;2022-12-18T10:56:26;0.70;1.00
21216;DHT22;10765;50.954;5.322;2022-12-18T10:58:59;0.50;1.00
21216;DHT22;10765;50.954;5.322;2022-12-18T11:01:27;0.30;1.00
21216;DHT22;10765;50.954;5.322;2022-12-18T11:04:04;0.10;1.00
21216;DHT22;10765;50.954;5.322;2022-12-18T11:06:34;-0.30;1.00
21216;DHT22;10765;50.954;5.322;2022-12-18T11:09:02;-0.40;1.00
21216;DHT22;10765;50.954;5.322;2022-12-18T11:11:31;-0.30;1.60
21216;DHT22;10765;50.954;5.322;2022-12-18T11:14:03;-0.10;1.00
21216;DHT22;10765;50.954;5.322;2022-12-18T11:16:34;0.10;1.00
21216;DHT22;10765;50.954;5.322;2022-12-18T11:19:18;0.20;1.00
21216;DHT22;10765;50.954;5.322;2022-12-18T11:21:46;0.10;1.00
21216;DHT22;10765;50.954;5.322;2022-12-18T11:24:29;0.20;1.00
21216;DHT22;10765;50.954;5.322;2022-12-18T11:26:58;0.30;1.00
21216;DHT22;10765;50.954;5.322;2022-12-18T11:29:33;0.60;1.00
21216;DHT22;10765;50.954;5.322;2022-12-18T11:32:26;0.50;1.00
21216;DHT22;10765;50.954;5.322;2022-12-18T11:34:59;0.50;1.00
21216;DHT22;10765;50.954;5.322;2022-12-18T11:37:28;0.80;1.00
21216;DHT22;10765;50.954;5.322;2022-12-18T11:39:59;0.80;1.00
21216;DHT22;10765;50.954;5.322;2022-12-18T11:42:34;1.00;1.00
21216;DHT22;10765;50.954;5.322;2022-12-18T11:45:25;1.00;1.00
21216;DHT22;10765;50.954;5.322;2022-12-18T11:47:57;1.00;1.00
21216;DHT22;10765;50.954;5.322;2022-12-18T11:50:30;1.10;1.00
21216;DHT22;10765;50.954;5.322;2022-12-18T11:52:58;1.20;1.00
21216;DHT22;10765;50.954;5.322;2022-12-18T11:55:32;1.30;1.00
21216;DHT22;10765;50.954;5.322;2022-12-18T11:58:04;1.30;1.00
21216;DHT22;10765;50.954;5.322;2022-12-18T12:00:39;1.20;1.00
21216;DHT22;10765;50.954;5.322;2022-12-18T12:03:38;1.10;1.00
21216;DHT22;10765;50.954;5.322;2022-12-18T12:06:13;1.00;1.00
21216;DHT22;10765;50.954;5.322;2022-12-18T12:08:54;1.00;1.00
21216;DHT22;10765;50.954;5.322;2022-12-18T12:11:31;1.30;1.00
21216;DHT22;10765;50.954;5.322;2022-12-18T12:14:22;1.50;1.00
21216;DHT22;10765;50.954;5.322;2022-12-18T12:16:58;1.70;1.00
21216;DHT22;10765;50.954;5.322;2022-12-18T12:19:36;1.60;1.00
21216;DHT22;10765;50.954;5.322;2022-12-18T12:22:10;1.70;1.00
21216;DHT22;10765;50.954;5.322;2022-12-18T12:24:51;1.80;1.00
21216;DHT22;10765;50.954;5.322;2022-12-18T12:27:28;1.80;1.00
21216;DHT22;10765;50.954;5.322;2022-12-18T12:30:04;1.90;1.00
21216;DHT22;10765;50.954;5.322;2022-12-18T12:32:44;1.90;1.00
21216;DHT22;10765;50.954;5.322;2022-12-18T12:35:22;1.90;1.00
21216;DHT22;10765;50.954;5.322;2022-12-18T12:38:00;1.90;1.00
21216;DHT22;10765;50.954;5.322;2022-12-18T12:40:34;1.90;1.00
21216;DHT22;10765;50.954;5.322;2022-12-18T12:43:03;1.80;1.00
21216;DHT22;10765;50.954;5.322;2022-12-18T12:45:44;1.80;1.00
21216;DHT22;10765;50.954;5.322;2022-12-18T12:48:20;1.80;1.00
21216;DHT22;10765;50.954;5.322;2022-12-18T12:50:50;1.70;1.00
21216;DHT22;10765;50.954;5.322;2022-12-18T12:53:25;1.70;1.00
21216;DHT22;10765;50.954;5.322;2022-12-18T12:55:54;1.70;1.00
21216;DHT22;10765;50.954;5.322;2022-12-18T12:58:29;1.90;1.00
21216;DHT22;10765;50.954;5.322;2022-12-18T13:01:04;1.90;1.00
21216;DHT22;10765;50.954;5.322;2022-12-18T13:03:43;1.70;1.00
21216;DHT22;10765;50.954;5.322;2022-12-18T13:06:19;1.60;1.00
21216;DHT22;10765;50.954;5.322;2022-12-18T13:08:55;1.80;1.00
21216;DHT22;10765;50.954;5.322;2022-12-18T13:11:35;1.90;1.00
21216;DHT22;10765;50.954;5.322;2022-12-18T13:14:27;1.90;1.00
21216;DHT22;10765;50.954;5.322;2022-12-18T13:17:15;2.20;1.00
21216;DHT22;10765;50.954;5.322;2022-12-18T13:19:43;2.50;1.00
21216;DHT22;10765;50.954;5.322;2022-12-18T13:22:22;2.50;1.00
21216;DHT22;10765;50.954;5.322;2022-12-18T13:24:49;2.40;1.00
21216;DHT22;10765;50.954;5.322;2022-12-18T13:30:50;2.30;1.00
21216;DHT22;10765;50.954;5.322;2022-12-18T13:33:38;2.30;1.00
21216;DHT22;10765;50.954;5.322;2022-12-18T13:39:20;2.30;1.00
21216;DHT22;10765;50.954;5.322;2022-12-18T13:41:49;2.30;1.00
21216;DHT22;10765;50.954;5.322;2022-12-18T13:44:25;2.30;1.00
21216;DHT22;10765;50.954;5.322;2022-12-18T13:46:54;2.60;1.00
21216;DHT22;10765;50.954;5.322;2022-12-18T13:49:24;2.70;1.00
21216;DHT22;10765;50.954;5.322;2022-12-18T13:51:54;2.70;1.00
21216;DHT22;10765;50.954;5.322;2022-12-18T13:54:27;2.60;1.00
21216;DHT22;10765;50.954;5.322;2022-12-18T13:56:55;2.60;1.00
21216;DHT22;10765;50.954;5.322;2022-12-18T13:59:24;2.40;1.00
21216;DHT22;10765;50.954;5.322;2022-12-18T14:01:54;2.50;1.00
21216;DHT22;10765;50.954;5.322;2022-12-18T14:04:26;2.40;1.00
21216;DHT22;10765;50.954;5.322;2022-12-18T14:06:57;2.30;1.00
21216;DHT22;10765;50.954;5.322;2022-12-18T14:09:26;2.30;1.00
21216;DHT22;10765;50.954;5.322;2022-12-18T14:11:57;2.10;1.00
21216;DHT22;10765;50.954;5.322;2022-12-18T14:14:41;1.90;1.00
21216;DHT22;10765;50.954;5.322;2022-12-18T14:17:09;1.90;1.00
21216;DHT22;10765;50.954;5.322;2022-12-18T14:19:37;1.90;1.00
21216;DHT22;10765;50.954;5.322;2022-12-18T14:22:13;1.90;1.00
21216;DHT22;10765;50.954;5.322;2022-12-18T14:24:41;1.90;1.00
21216;DHT22;10765;50.954;5.322;2022-12-18T14:27:19;1.90;1.00
21216;DHT22;10765;50.954;5.322;2022-12-18T14:29:47;1.90;1.00
21216;DHT22;10765;50.954;5.322;2022-12-18T14:32:16;1.90;1.00
21216;DHT22;10765;50.954;5.322;2022-12-18T14:34:44;1.90;1.00
21216;DHT22;10765;50.954;5.322;2022-12-18T14:37:14;2.00;1.00
21216;DHT22;10765;50.954;5.322;2022-12-18T14:39:52;2.00;1.00
21216;DHT22;10765;50.954;5.322;2022-12-18T14:42:19;2.10;1.00
21216;DHT22;10765;50.954;5.322;2022-12-18T14:44:46;2.10;1.00
21216;DHT22;10765;50.954;5.322;2022-12-18T14:47:14;2.20;1.00
21216;DHT22;10765;50.954;5.322;2022-12-18T14:49:42;2.20;1.00
21216;DHT22;10765;50.954;5.322;2022-12-18T14:52:22;2.20;1.00
21216;DHT22;10765;50.954;5.322;2022-12-18T14:54:49;2.10;1.00
21216;DHT22;10765;50.954;5.322;2022-12-18T14:57:22;1.90;1.00
21216;DHT22;10765;50.954;5.322;2022-12-18T14:59:50;1.70;1.00
21216;DHT22;10765;50.954;5.322;2022-12-18T15:02:21;1.60;1.00
21216;DHT22;10765;50.954;5.322;2022-12-18T15:04:59;1.50;1.00
21216;DHT22;10765;50.954;5.322;2022-12-18T15:07:40;1.30;1.00
21216;DHT22;10765;50.954;5.322;2022-12-18T15:10:12;1.30;1.00
21216;DHT22;10765;50.954;5.322;2022-12-18T15:12:41;1.10;1.00
21216;DHT22;10765;50.954;5.322;2022-12-18T15:15:47;1.10;1.00
21216;DHT22;10765;50.954;5.322;2022-12-18T15:18:15;1.10;1.00
21216;DHT22;10765;50.954;5.322;2022-12-18T15:20:45;1.10;1.00
21216;DHT22;10765;50.954;5.322;2022-12-18T15:23:17;1.10;1.00
21216;DHT22;10765;50.954;5.322;2022-12-18T15:25:45;1.10;1.00
21216;DHT22;10765;50.954;5.322;2022-12-18T15:28:21;1.10;1.00
21216;DHT22;10765;50.954;5.322;2022-12-18T15:31:05;1.00;1.00
21216;DHT22;10765;50.954;5.322;2022-12-18T15:33:33;1.10;1.00
21216;DHT22;10765;50.954;5.322;2022-12-18T15:36:03;1.20;1.00
21216;DHT22;10765;50.954;5.322;2022-12-18T15:38:32;1.10;1.00
21216;DHT22;10765;50.954;5.322;2022-12-18T15:40:58;1.10;1.00
21216;DHT22;10765;50.954;5.322;2022-12-18T15:43:28;1.10;1.00
21216;DHT22;10765;50.954;5.322;2022-12-18T15:46:02;1.10;1.00
21216;DHT22;10765;50.954;5.322;2022-12-18T15:48:29;1.10;1.00
21216;DHT22;10765;50.954;5.322;2022-12-18T15:50:57;1.10;1.00
21216;DHT22;10765;50.954;5.322;2022-12-18T15:53:25;1.20;1.00
21216;DHT22;10765;50.954;5.322;2022-12-18T15:55:56;1.20;1.00
21216;DHT22;10765;50.954;5.322;2022-12-18T15:58:41;1.20;1.00
21216;DHT22;10765;50.954;5.322;2022-12-18T16:01:09;1.20;1.00
21216;DHT22;10765;50.954;5.322;2022-12-18T16:03:36;1.20;1.00
21216;DHT22;10765;50.954;5.322;2022-12-18T16:06:03;1.20;1.00
21216;DHT22;10765;50.954;5.322;2022-12-18T16:08:30;1.20;1.00
21216;DHT22;10765;50.954;5.322;2022-12-18T16:10:59;1.30;1.00
21216;DHT22;10765;50.954;5.322;2022-12-18T16:13:26;1.30;1.00
21216;DHT22;10765;50.954;5.322;2022-12-18T16:15:53;1.30;1.00
21216;DHT22;10765;50.954;5.322;2022-12-18T16:18:21;1.40;1.00